Time;durP1;ratioP1;P1;durP2;ratioP2;P2;SDS_P1;SDS_P2;PMS_P1;PMS_P2;Temp;Humidity;BMP_temperature;BMP_pressure;BME280_temperature;BME280_humidity;BME280_pressure;Samples;Min_cycle;Max_cycle;Signal;HPM_P1;HPM_P2
2022/01/12 00:02:00;;;;;;;13.48;6.05;;;-12.10;26.30;;;-12.63;94.55;100962.19;4981891;28;119434;-68
2022/01/12 00:04:29;;;;;;;13.75;6.10;;;-12.20;26.40;;;-12.69;95.05;100961.75;4980996;28;129898;-68
2022/01/12 00:06:59;;;;;;;15.32;6.95;;;-12.20;25.60;;;-12.64;94.97;100952.69;4981775;28;129686;-68
2022/01/12 00:09:27;;;;;;;12.48;5.68;;;-12.20;24.90;;;-12.67;94.88;100957.22;4977562;28;122684;-68
2022/01/12 00:11:56;;;;;;;17.00;5.97;;;-12.20;24.30;;;-12.66;94.37;100966.72;4979514;28;122838;-68
2022/01/12 00:14:25;;;;;;;11.02;6.05;;;-12.20;24.60;;;-12.64;94.44;100960.53;4979772;28;130255;-68
2022/01/12 00:16:59;;;;;;;14.80;6.13;;;-12.10;24.90;;;-12.74;94.75;100956.06;4981158;28;129901;-68
2022/01/12 00:19:29;;;;;;;12.23;5.75;;;-12.10;26.00;;;-12.70;94.98;100962.72;4978518;28;119483;-68
2022/01/12 00:21:58;;;;;;;10.60;5.22;;;-12.10;25.80;;;-12.76;95.35;100960.59;4979080;28;119223;-67
2022/01/12 00:24:40;;;;;;;12.20;6.13;;;-12.00;25.10;;;-12.78;95.26;100953.81;4977901;28;129768;-67
2022/01/12 00:35:25;;;;;;;12.40;5.25;;;-12.20;25.20;;;-12.78;94.84;100954.63;4994666;28;129826;-68
2022/01/12 00:37:55;;;;;;;12.70;6.15;;;-12.20;26.20;;;-12.76;94.89;100957.97;4978851;28;130315;-68
2022/01/12 00:40:23;;;;;;;13.65;5.80;;;-12.30;25.00;;;-12.76;94.74;100949.28;4996861;28;119628;-68
2022/01/12 00:42:52;;;;;;;14.20;6.13;;;-12.30;25.20;;;-12.77;94.59;100951.06;4978904;28;119377;-68
2022/01/12 00:45:21;;;;;;;16.20;6.00;;;-12.30;26.40;;;-12.86;94.83;100950.03;4993889;28;129779;-68
2022/01/12 00:47:50;;;;;;;11.32;5.25;;;-12.30;26.10;;;-12.84;94.92;100939.44;4997242;28;129454;-68
2022/01/12 00:50:19;;;;;;;18.58;6.47;;;-12.30;25.80;;;-12.91;94.76;100943.53;4979387;28;118647;-68
2022/01/12 00:52:50;;;;;;;14.20;5.88;;;-12.30;24.20;;;-12.80;94.69;100946.09;4997436;28;119491;-68
2022/01/12 00:55:21;;;;;;;13.65;5.88;;;-12.30;24.80;;;-12.84;94.22;100948.13;4978251;28;129796;-67
2022/01/12 00:57:51;;;;;;;13.52;5.93;;;-12.40;24.90;;;-12.90;94.52;100945.16;4996223;28;129289;-68
2022/01/12 01:00:21;;;;;;;11.52;5.35;;;-12.40;24.00;;;-12.89;94.23;100939.00;4994183;28;122166;-68
2022/01/12 01:02:50;;;;;;;14.10;6.25;;;-12.50;24.60;;;-12.89;94.24;100937.19;4981337;28;122604;-67
2022/01/12 01:05:21;;;;;;;15.35;6.05;;;-12.50;23.50;;;-12.85;93.83;100935.19;4994551;28;130922;-68
2022/01/12 01:07:50;;;;;;;20.15;6.28;;;-12.50;23.10;;;-12.95;93.95;100934.25;4996854;28;129652;-68
2022/01/12 01:10:29;;;;;;;14.73;6.00;;;-12.50;23.70;;;-12.89;94.36;100934.59;4996379;28;119322;-68
2022/01/12 01:13:00;;;;;;;14.63;5.93;;;-12.50;23.70;;;-13.00;94.56;100928.56;4990380;28;119068;-68
2022/01/12 01:15:51;;;;;;;11.77;5.22;;;-12.50;25.80;;;-12.99;94.55;100925.00;5004117;28;130603;-68
2022/01/12 01:26:46;;;;;;;14.45;5.82;;;-12.70;24.30;;;-13.17;94.99;100925.50;4988480;28;130165;-68
2022/01/12 01:29:15;;;;;;;13.55;5.90;;;-12.50;26.60;;;-13.16;95.21;100924.56;4982185;28;131260;-67
2022/01/12 01:31:45;;;;;;;15.25;6.75;;;-12.60;26.10;;;-13.03;94.60;100919.19;4975394;28;119536;-67
2022/01/12 01:34:15;;;;;;;11.55;5.15;;;-12.60;24.80;;;-13.01;94.12;100927.72;4996726;28;119269;-67
2022/01/12 01:36:50;;;;;;;11.98;5.63;;;-12.60;23.50;;;-13.00;94.27;100929.41;4976844;28;130393;-68
2022/01/12 01:39:23;;;;;;;13.85;5.63;;;-12.60;23.80;;;-13.00;93.83;100933.81;4994240;28;129843;-68
2022/01/12 01:41:59;;;;;;;15.93;5.88;;;-12.70;24.40;;;-12.94;94.09;100938.53;5000291;28;119475;-67
2022/01/12 01:53:17;;;;;;;16.55;6.10;;;-12.60;25.20;;;-12.98;93.95;100931.88;4999639;28;118792;-68
2022/01/12 01:55:45;;;;;;;15.45;7.03;;;-12.40;24.50;;;-12.99;93.43;100930.22;4998843;28;122159;-69
2022/01/12 01:58:16;;;;;;;13.05;5.72;;;-12.50;23.30;;;-13.00;93.66;100928.56;4981773;28;130263;-67
2022/01/12 02:00:45;;;;;;;13.65;5.72;;;-12.70;22.60;;;-13.06;93.18;100930.72;4996259;28;130123;-68
2022/01/12 02:03:19;;;;;;;14.25;6.55;;;-12.70;22.60;;;-13.04;93.94;100928.81;4993800;28;119745;-68
2022/01/12 02:05:51;;;;;;;21.05;9.35;;;-12.70;22.60;;;-13.05;93.27;100929.75;4996237;28;119273;-68
2022/01/12 02:08:20;;;;;;;16.67;6.32;;;-12.80;22.50;;;-13.12;93.20;100925.16;4977603;28;128830;-68
2022/01/12 02:10:58;;;;;;;;;;;-12.80;22.50;;;-13.17;93.32;100922.91;4998446;28;129796;-67
2022/01/12 02:13:29;;;;;;;14.73;6.05;;;-12.80;22.30;;;-13.11;92.95;100921.59;4982457;28;119646;-67
2022/01/12 02:15:58;;;;;;;13.90;6.78;;;-12.90;21.80;;;-13.17;93.02;100928.13;4999820;28;119269;-68
2022/01/12 02:18:40;;;;;;;14.32;5.70;;;-12.90;23.00;;;-13.19;93.95;100916.97;4979777;28;129506;-68
2022/01/12 02:35:34;;;;;;;17.50;8.82;;;-12.50;24.90;;;-13.33;95.73;100919.91;4979987;28;120009;-68
2022/01/12 02:40:54;;;;;;;16.63;8.55;;;-12.30;23.30;;;-13.39;96.14;100919.41;4995744;28;129579;-68
2022/01/12 02:43:39;;;;;;;20.48;9.77;;;-12.40;23.00;;;-13.25;95.80;100920.09;4980048;28;129715;-68
2022/01/12 02:54:23;;;;;;;20.83;9.18;;;-12.40;22.50;;;-13.50;96.46;100911.59;5013098;28;129326;-68
2022/01/12 02:56:52;;;;;;;14.77;6.53;;;-12.40;24.70;;;-13.39;96.68;100916.78;4999232;28;119589;-68
2022/01/12 02:59:21;;;;;;;22.30;7.75;;;-12.40;22.40;;;-13.34;96.43;100911.22;4998468;28;119337;-68
2022/01/12 03:02:18;;;;;;;23.65;9.65;;;-12.40;22.90;;;-13.37;96.13;100911.44;4994995;28;129740;-68
2022/01/12 03:05:03;;;;;;;18.27;8.57;;;-12.40;23.50;;;-13.38;96.48;100905.41;4980221;28;130486;-68
2022/01/12 03:07:37;;;;;;;15.45;7.93;;;-12.40;22.00;;;-13.27;96.32;100901.09;5013726;28;119649;-68
2022/01/12 03:10:10;;;;;;;15.15;6.32;;;-12.40;22.70;;;-13.25;96.47;100904.41;4980363;28;119576;-68
2022/01/12 03:12:39;;;;;;;13.95;6.25;;;-12.40;22.70;;;-13.35;96.64;100906.09;4997071;28;129679;-68
2022/01/12 03:15:09;;;;;;;14.60;6.20;;;-12.30;23.50;;;-13.27;96.00;100893.25;4998139;28;129664;-68
2022/01/12 03:17:38;;;;;;;17.33;6.60;;;-12.60;22.30;;;-13.28;96.05;100899.41;4982037;28;120987;-68
2022/01/12 03:20:09;;;;;;;13.43;6.15;;;-12.50;22.20;;;-13.20;95.12;100903.09;5000454;28;119237;-68
2022/01/12 03:22:39;;;;;;;15.80;5.95;;;-12.60;21.00;;;-13.29;94.76;100902.97;4983571;28;129526;-69
2022/01/12 03:25:10;;;;;;;10.10;5.25;;;-12.50;23.70;;;-13.29;94.96;100897.75;5000391;28;129728;-68
2022/01/12 03:27:39;;;;;;;13.20;5.57;;;-12.60;23.50;;;-13.40;95.00;100896.88;4998443;28;119547;-68
2022/01/12 03:30:08;;;;;;;13.05;5.78;;;-12.60;24.70;;;-13.34;95.62;100892.91;5000680;28;118811;-69
2022/01/12 03:32:42;;;;;;;10.07;4.82;;;-12.40;22.80;;;-13.22;95.15;100898.94;4980206;28;129387;-69
2022/01/12 03:35:24;;;;;;;12.68;5.80;;;-12.40;22.10;;;-13.50;96.27;100895.94;5000343;28;129293;-69
2022/01/12 03:38:19;;;;;;;12.98;5.20;;;-12.40;22.60;;;-13.52;96.43;100890.00;5015604;28;121806;-68
2022/01/12 03:40:46;;;;;;;15.52;6.55;;;-12.40;22.50;;;-13.53;97.10;100896.16;4985708;28;121784;-69
2022/01/12 03:43:15;;;;;;;13.98;6.03;;;-12.40;22.40;;;-13.45;96.80;100898.19;4960517;28;129436;-69
2022/01/12 03:45:46;;;;;;;11.30;5.57;;;-12.40;21.40;;;-13.47;96.71;100895.69;4946773;28;129552;-69
2022/01/12 03:48:16;;;;;;;14.52;6.18;;;-12.50;22.60;;;-13.34;96.44;100902.56;4946765;28;119867;-68
2022/01/12 03:50:44;;;;;;;13.65;5.90;;;-12.50;21.00;;;-13.25;95.73;100899.19;4927328;28;119580;-68
2022/01/12 03:53:13;;;;;;;14.13;6.28;;;-12.50;20.10;;;-13.19;94.82;100890.84;4982487;28;129659;-68
2022/01/12 03:55:42;;;;;;;17.63;6.95;;;-12.60;19.30;;;-13.29;94.57;100893.38;4982908;28;129807;-68
2022/01/12 03:58:12;;;;;;;15.65;7.50;;;-12.60;19.00;;;-13.28;94.19;100899.41;4961617;28;119726;-68
2022/01/12 04:00:41;;;;;;;20.58;8.18;;;-12.60;19.70;;;-13.29;94.20;100892.53;4976439;28;119191;-69
2022/01/12 04:03:12;;;;;;;12.10;6.88;;;-12.70;19.80;;;-13.25;93.93;100889.53;4960572;28;129597;-68
2022/01/12 04:08:18;;;;;;;17.83;7.70;;;-12.70;19.00;;;-13.26;93.73;100890.53;4962888;28;129636;-68
2022/01/12 04:08:37;;;;;;;21.55;7.30;;;-12.70;18.60;;;-13.33;93.94;100880.72;4969866;28;119192;-68
2022/01/12 04:11:06;;;;;;;15.80;6.85;;;-12.80;18.70;;;-13.30;93.41;100886.47;4976600;28;119428;-69
2022/01/12 04:13:37;;;;;;;16.10;6.45;;;-12.80;19.30;;;-13.22;93.45;100893.72;4992754;28;129972;-69
2022/01/12 04:16:08;;;;;;;11.30;5.72;;;-12.80;19.10;;;-13.23;93.22;100886.81;4978918;28;129272;-68
2022/01/12 04:18:37;;;;;;;17.42;6.15;;;-12.90;19.00;;;-13.29;92.99;100877.69;4979106;28;119956;-68
2022/01/12 04:21:08;;;;;;;15.90;7.53;;;-12.90;19.00;;;-13.30;93.02;100885.66;4979809;28;119450;-68
2022/01/12 04:23:38;;;;;;;14.40;7.15;;;-12.90;18.90;;;-13.39;93.36;100882.84;4946197;28;129164;-68
2022/01/12 04:26:10;;;;;;;13.32;5.68;;;-13.00;19.30;;;-13.47;93.33;100881.81;4962254;28;129323;-67
2022/01/12 04:28:45;;;;;;;14.80;6.40;;;-13.00;19.80;;;-13.33;92.83;100880.72;4958678;28;122123;-67
2022/01/12 04:31:14;;;;;;;13.02;5.40;;;-13.00;19.00;;;-13.27;92.52;100885.41;4959549;28;121881;-67
2022/01/12 04:33:45;;;;;;;15.60;6.53;;;-13.10;18.80;;;-13.27;91.95;100890.66;4962256;28;130295;-68
2022/01/12 04:36:16;;;;;;;16.30;6.15;;;-13.10;18.60;;;-13.30;92.76;100880.44;4992126;28;130425;-68
2022/01/12 04:38:46;;;;;;;11.07;5.22;;;-13.00;18.50;;;-13.30;92.52;100881.25;4962432;28;120067;-68
2022/01/12 04:41:15;;;;;;;12.05;5.90;;;-13.00;19.00;;;-13.31;92.52;100884.00;4961449;28;119580;-72
2022/01/12 04:43:48;;;;;;;10.48;5.82;;;-13.10;19.20;;;-13.47;92.32;100880.00;4976283;28;130353;-72
2022/01/12 04:46:29;;;;;;;14.82;5.57;;;-13.10;20.30;;;-13.34;92.41;100889.50;4961009;28;129763;-69
2022/01/12 04:49:21;;;;;;;16.13;6.13;;;-13.10;18.80;;;-13.36;92.28;100880.97;4976846;28;119424;-69
2022/01/12 04:51:51;;;;;;;13.98;5.88;;;-13.10;18.00;;;-13.30;92.17;100885.66;4963045;28;119753;-69
2022/01/12 04:54:20;;;;;;;14.55;5.70;;;-13.10;18.00;;;-13.30;92.00;100880.44;4977649;28;130399;-69
2022/01/12 04:56:49;;;;;;;12.98;5.28;;;-13.20;17.50;;;-13.33;92.03;100881.53;4978352;28;130885;-69
2022/01/12 04:59:19;;;;;;;11.88;6.45;;;-13.10;17.40;;;-13.32;92.60;100883.16;4975234;28;119821;-69
2022/01/12 05:01:56;;;;;;;10.55;5.85;;;-13.10;18.40;;;-13.39;92.63;100882.84;4978282;28;119044;-69
2022/01/12 05:07:29;;;;;;;16.30;6.60;;;-13.10;18.90;;;-13.42;92.57;100893.53;4975600;28;129674;-69
2022/01/12 05:12:47;;;;;;;17.30;7.55;;;-13.00;18.70;;;-13.44;93.84;100881.56;4978793;28;119513;-69
2022/01/12 05:12:53;;;;;;;17.50;7.07;;;-12.90;20.00;;;-13.41;92.91;100884.75;4978252;28;119994;-69
2022/01/12 05:15:31;;;;;;;20.20;8.75;;;-13.00;20.70;;;-13.41;93.74;100882.13;4972357;28;129907;-69
2022/01/12 05:18:00;;;;;;;20.95;8.35;;;-12.90;20.90;;;-13.32;93.45;100871.88;4998092;28;130173;-69
2022/01/12 05:20:29;;;;;;;20.45;7.57;;;-12.90;20.30;;;-13.26;93.26;100872.22;4977562;28;122049;-69
2022/01/12 05:22:59;;;;;;;16.05;7.50;;;-12.80;19.90;;;-13.51;94.53;100869.94;4980725;28;121652;-69
2022/01/12 05:25:27;;;;;;;19.95;9.32;;;-12.80;23.80;;;-13.34;93.75;100868.59;4981457;28;129975;-69
2022/01/12 05:27:56;;;;;;;16.33;8.10;;;-12.90;21.00;;;-13.23;93.33;100863.28;4981312;28;129444;-68
2022/01/12 05:30:26;;;;;;;18.67;8.05;;;-12.90;21.00;;;-13.27;93.36;100864.50;4981784;28;119543;-68
2022/01/12 05:32:56;;;;;;;14.93;6.60;;;-12.80;21.70;;;-13.58;94.49;100862.56;4978915;28;119270;-68
2022/01/12 05:35:30;;;;;;;17.45;7.28;;;-12.70;26.00;;;-13.63;95.63;100869.09;4981580;28;129832;-68
2022/01/12 05:38:00;;;;;;;17.25;7.82;;;-12.60;24.20;;;-13.40;95.37;100869.91;4978840;28;130304;-69
2022/01/12 05:40:29;;;;;;;19.67;7.20;;;-12.70;21.50;;;-13.33;94.11;100871.09;4998455;28;119371;-70
2022/01/12 05:43:00;;;;;;;15.52;5.68;;;-12.80;20.40;;;-13.26;93.25;100866.16;4979332;28;119541;-69
2022/01/12 05:45:33;;;;;;;11.00;5.10;;;-13.00;19.90;;;-13.21;92.88;100871.88;4980500;28;129920;-69
2022/01/12 05:50:49;;;;;;;11.38;5.82;;;-13.00;19.60;;;-13.32;92.97;100871.88;4981240;28;119693;-69
2022/01/12 05:53:26;;;;;;;12.85;5.00;;;-12.90;19.20;;;-13.31;92.65;100873.53;4979587;28;120375;-69
2022/01/12 05:55:56;;;;;;;11.02;5.60;;;-13.00;20.00;;;-13.31;92.85;100873.53;4979400;28;129967;-69
2022/01/12 05:58:24;;;;;;;15.80;5.47;;;-13.00;19.70;;;-13.31;92.67;100873.53;4981267;28;129903;-69
2022/01/12 06:00:54;;;;;;;13.05;5.95;;;-13.00;19.80;;;-13.31;92.70;100870.94;4981209;28;119953;-69
2022/01/12 06:03:23;;;;;;;22.77;6.15;;;-13.00;20.50;;;-13.33;92.41;100875.50;4998216;28;119118;-69
2022/01/12 06:05:52;;;;;;;13.55;5.72;;;-13.10;19.80;;;-13.29;92.29;100884.69;4980689;28;130379;-70
2022/01/12 06:08:21;;;;;;;22.30;7.05;;;-12.90;20.60;;;-13.33;92.78;100880.72;4979333;28;129706;-70
2022/01/12 06:10:49;;;;;;;12.02;5.70;;;-12.90;21.50;;;-13.38;93.32;100876.66;4980070;28;122366;-71
2022/01/12 06:13:18;;;;;;;13.43;6.53;;;-12.90;22.20;;;-13.36;93.24;100880.97;4992857;28;121811;-71
2022/01/12 06:15:47;;;;;;;14.55;5.70;;;-12.90;21.40;;;-13.33;93.32;100880.72;4984659;28;129794;-71
2022/01/12 06:18:17;;;;;;;18.65;7.45;;;-12.90;21.20;;;-13.30;93.30;100885.66;4984233;28;129531;-71
2022/01/12 06:20:45;;;;;;;15.05;6.50;;;-12.80;20.90;;;-13.26;92.78;100887.06;4982366;28;119568;-71
2022/01/12 06:23:14;;;;;;;13.85;6.25;;;-12.80;21.50;;;-13.18;93.12;100897.75;4985102;28;119358;-71
2022/01/12 06:25:48;;;;;;;14.90;7.32;;;-12.80;20.60;;;-13.15;92.65;100899.25;4982069;28;130655;-71
2022/01/12 06:28:38;;;;;;;19.00;8.07;;;-12.80;20.20;;;-13.12;92.21;100905.06;4985079;28;128790;-71
2022/01/12 06:31:11;;;;;;;23.48;9.40;;;-12.80;19.90;;;-13.12;92.73;100889.38;4982867;28;119671;-71
2022/01/12 06:33:46;;;;;;;24.83;9.27;;;-12.80;20.10;;;-13.09;92.36;100889.13;4984810;28;119577;-71
2022/01/12 06:36:16;;;;;;;27.92;10.50;;;-12.80;19.80;;;-12.99;91.77;100880.56;4983940;28;130065;-71
2022/01/12 06:38:46;;;;;;;21.25;9.90;;;-12.80;19.60;;;-12.97;91.64;100881.28;4981275;28;129525;-71
2022/01/12 06:41:15;;;;;;;19.98;10.55;;;-12.60;20.00;;;-12.85;91.58;100875.88;4981377;28;119668;-71
2022/01/12 06:43:45;;;;;;;24.27;12.38;;;-12.80;19.00;;;-13.03;91.63;100880.81;4984560;28;119036;-71
2022/01/12 06:46:17;;;;;;;30.95;12.02;;;-12.70;20.90;;;-12.82;91.50;100879.19;4983924;28;130265;-71
2022/01/12 06:48:47;;;;;;;32.97;13.55;;;-12.70;19.70;;;-12.75;90.60;100882.97;4984496;28;131009;-71
2022/01/12 06:51:16;;;;;;;40.67;16.63;;;-12.70;19.40;;;-12.58;89.89;100881.59;4984664;28;120163;-71
2022/01/12 06:53:45;;;;;;;41.40;17.98;;;-12.70;18.80;;;-12.73;90.32;100874.06;4984779;28;119058;-71
2022/01/12 06:56:15;;;;;;;48.53;19.02;;;-12.60;20.70;;;-12.56;90.25;100884.88;4995338;28;130061;-71
2022/01/12 06:58:48;;;;;;;67.55;26.55;;;-12.50;19.30;;;-12.52;89.74;100881.88;4964135;28;129101;-71
2022/01/12 07:01:18;;;;;;;57.85;24.83;;;-12.40;19.20;;;-12.32;89.52;100869.75;4979607;28;122356;-71
2022/01/12 07:03:55;;;;;;;43.50;18.13;;;-12.50;18.50;;;-12.27;88.70;100863.31;4993923;28;122703;-71
2022/01/12 07:06:25;;;;;;;31.55;13.32;;;-12.50;18.30;;;-11.97;88.17;100862.50;4978257;28;130387;-71
2022/01/12 07:08:53;;;;;;;24.52;12.07;;;-12.30;17.70;;;-11.75;87.21;100870.16;4963377;28;129311;-71
2022/01/12 07:11:44;;;;;;;20.60;9.57;;;-12.20;17.80;;;-11.78;87.21;100870.41;4965211;28;119618;-71
2022/01/12 07:14:24;;;;;;;22.85;10.93;;;-12.00;17.50;;;-11.78;87.28;100875.66;4997411;28;119395;-71
2022/01/12 07:16:52;;;;;;;30.00;11.88;;;-12.00;16.80;;;-11.82;87.42;100868.19;4963897;28;129691;-71
2022/01/12 07:19:24;;;;;;;19.80;11.43;;;-11.90;16.80;;;-11.95;87.56;100864.03;4977707;28;130316;-70
2022/01/12 07:21:52;;;;;;;21.95;11.32;;;-12.00;16.30;;;-11.87;88.42;100865.13;4997361;28;120380;-70
2022/01/12 07:24:21;;;;;;;24.20;10.48;;;-11.90;16.30;;;-12.00;88.00;100855.72;4964326;28;119469;-70
2022/01/12 07:26:49;;;;;;;22.33;11.07;;;-11.90;15.90;;;-11.85;88.12;100861.41;4960176;28;129872;-70
2022/01/12 07:29:18;;;;;;;21.52;11.05;;;-11.90;15.80;;;-11.72;87.72;100858.56;4967270;28;128917;-70
2022/01/12 07:31:48;;;;;;;15.77;7.18;;;-11.90;15.50;;;-11.54;86.75;100850.03;4983673;28;120090;-71
2022/01/12 07:34:17;;;;;;;14.93;7.28;;;-11.90;15.40;;;-11.41;86.62;100861.94;4981868;28;119939;-70
2022/01/12 07:36:47;;;;;;;16.90;8.30;;;-11.80;15.60;;;-11.45;86.28;100859.72;4981565;28;130302;-70
2022/01/12 07:39:16;;;;;;;20.35;9.30;;;-11.70;14.70;;;-11.41;87.33;100861.13;4981582;28;129857;-70
2022/01/12 07:41:45;;;;;;;16.88;7.20;;;-11.50;14.90;;;-11.34;86.68;100862.25;4981111;28;119532;-71
2022/01/12 07:44:14;;;;;;;10.90;5.95;;;-11.50;14.90;;;-11.16;86.31;100859.78;4982845;28;119553;-71
2022/01/12 07:46:42;;;;;;;12.93;6.75;;;-11.40;14.90;;;-11.04;86.00;100858.69;4982475;28;129683;-70
2022/01/12 07:49:11;;;;;;;14.50;7.03;;;-11.30;14.40;;;-11.23;86.73;100869.97;4980595;28;130024;-72
2022/01/12 07:51:39;;;;;;;17.15;8.77;;;-11.40;13.20;;;-11.16;86.03;100869.44;4979797;28;121955;-70
2022/01/12 07:54:09;;;;;;;20.13;9.50;;;-11.30;12.70;;;-10.98;86.17;100867.81;4981218;28;121869;-70
2022/01/12 07:56:38;;;;;;;24.15;9.80;;;-11.20;13.60;;;-10.88;86.41;100873.84;4982015;28;130657;-70
2022/01/12 07:59:06;;;;;;;15.25;6.88;;;-11.10;13.50;;;-10.72;85.67;100862.84;4999639;28;129684;-70
2022/01/12 08:01:35;;;;;;;19.35;7.78;;;-11.00;13.30;;;-10.55;85.46;100876.19;4982628;28;119523;-70
2022/01/12 08:04:03;;;;;;;18.98;8.85;;;-10.90;13.00;;;-10.70;85.61;100875.81;4981519;28;119089;-71
2022/01/12 08:06:32;;;;;;;19.33;8.70;;;-10.90;11.40;;;-10.63;85.16;100876.91;4981031;28;130070;-71
2022/01/12 08:09:01;;;;;;;17.10;7.95;;;-10.90;11.20;;;-10.66;84.73;100874.56;4981190;28;130407;-71
2022/01/12 08:11:32;;;;;;;15.90;8.05;;;-10.90;9.90;;;-10.49;84.68;100878.25;4981165;28;119591;-71
2022/01/12 08:14:00;;;;;;;24.65;13.02;;;-10.70;10.40;;;-10.35;84.27;100863.88;4980994;28;119605;-71
2022/01/12 08:16:28;;;;;;;24.15;11.93;;;-10.60;10.20;;;-10.07;83.96;100861.28;4980918;28;128846;-71
2022/01/12 08:18:58;;;;;;;27.05;12.60;;;-10.60;10.30;;;-9.95;83.45;100863.59;4980282;28;130013;-70
2022/01/12 08:21:27;;;;;;;31.23;16.40;;;-10.50;9.40;;;-10.03;82.48;100862.66;4981833;28;119815;-70
2022/01/12 08:23:56;;;;;;;36.15;17.30;;;-10.50;8.60;;;-9.86;82.46;100863.69;4982293;28;119939;-70
2022/01/12 08:26:25;;;;;;;21.30;11.48;;;-10.50;9.20;;;-10.40;84.18;100861.66;4980707;28;130648;-70
2022/01/12 08:28:55;;;;;;;42.60;18.63;;;-10.50;5.50;;;-10.08;83.91;100864.88;4980402;28;130289;-70
2022/01/12 08:31:23;;;;;;;36.55;16.33;;;-10.30;6.50;;;-9.98;84.04;100860.44;4980801;28;119704;-70
2022/01/12 08:33:52;;;;;;;28.80;13.43;;;-10.30;6.40;;;-10.12;82.95;100859.91;4982050;28;119789;-70
2022/01/12 08:36:20;;;;;;;28.80;12.82;;;-10.30;5.30;;;-9.83;82.89;100859.00;4979618;28;130187;-70
2022/01/12 08:38:49;;;;;;;16.42;9.00;;;-10.20;6.20;;;-10.45;84.26;100863.06;4980539;28;129948;-70
2022/01/12 08:41:18;;;;;;;18.13;7.57;;;-10.30;2.60;;;-10.57;85.33;100865.03;4982068;28;122224;-70
2022/01/12 08:43:47;;;;;;;17.20;8.13;;;-10.40;2.60;;;-10.58;84.92;100861.56;4983539;28;121726;-70
2022/01/12 08:46:17;;;;;;;16.13;6.30;;;-10.30;2.00;;;-10.34;85.10;100847.16;4980197;28;130669;-71
2022/01/12 08:48:45;;;;;;;14.75;7.10;;;-10.20;2.70;;;-10.48;85.64;100854.50;4980110;28;129792;-71
2022/01/12 08:51:14;;;;;;;18.48;8.45;;;-10.20;2.40;;;-10.05;84.55;100851.47;4982328;28;119560;-70
2022/01/12 08:53:42;;;;;;;15.55;8.93;;;-10.10;3.50;;;-10.00;83.17;100867.59;4982906;28;119600;-70
2022/01/12 08:56:11;;;;;;;13.45;6.53;;;-9.90;1.00;;;-10.58;84.80;100863.34;4983069;28;130648;-70
2022/01/12 08:58:40;;;;;;;18.65;8.73;;;-10.10;1.00;;;-10.50;85.60;100845.94;4980597;28;130048;-70
2022/01/12 09:01:10;;;;;;;22.90;10.40;;;-10.10;1.00;;;-10.45;84.56;100847.31;4980525;28;120226;-70
2022/01/12 09:03:41;;;;;;;23.48;9.15;;;-10.00;1.00;;;-10.30;83.78;100845.84;4980328;28;119862;-71
2022/01/12 09:06:11;;;;;;;13.23;6.55;;;-9.90;1.00;;;-10.35;83.48;100843.69;4978861;28;131135;-70
2022/01/12 09:08:42;;;;;;;14.05;6.10;;;-10.00;1.00;;;-10.38;83.63;100833.47;4979703;28;129704;-70
2022/01/12 09:11:14;;;;;;;15.88;6.65;;;-10.00;1.00;;;-10.38;83.83;100822.16;4980821;28;119391;-70
2022/01/12 09:13:43;;;;;;;13.60;6.10;;;-10.00;1.00;;;-10.10;83.83;100827.44;4981973;28;119409;-70
2022/01/12 09:16:11;;;;;;;20.15;8.50;;;-9.90;1.00;;;-9.72;82.68;100830.84;4980042;28;130129;-70
2022/01/12 09:18:43;;;;;;;24.02;10.90;;;-9.70;1.00;;;-9.47;82.17;100826.69;4998381;28;130870;-70
2022/01/12 09:21:12;;;;;;;13.45;6.43;;;-9.50;1.00;;;-9.70;82.54;100826.28;4980324;28;120593;-70
2022/01/12 09:23:43;;;;;;;17.70;7.75;;;-9.60;1.00;;;-9.58;81.72;100819.88;4980644;28;119361;-70
2022/01/12 09:26:13;;;;;;;20.25;11.07;;;-9.50;1.00;;;-9.62;82.56;100818.50;4979609;28;130100;-70
2022/01/12 09:28:41;;;;;;;16.77;9.85;;;-9.50;1.00;;;-9.29;82.14;100821.47;4981641;28;130873;-70
2022/01/12 09:31:09;;;;;;;21.90;10.23;;;-9.30;1.00;;;-8.62;81.17;100815.78;4978640;28;122202;-70
2022/01/12 09:33:39;;;;;;;20.70;11.80;;;-9.10;1.00;;;-8.34;78.86;100806.72;4982706;28;122158;-72
2022/01/12 09:36:09;;;;;;;18.60;9.60;;;-8.90;1.00;;;-8.63;79.84;100814.13;4980332;28;129816;-71
2022/01/12 09:38:38;;;;;;;19.40;8.57;;;-9.00;1.00;;;-8.88;80.73;100811.28;4980498;28;130033;-69
2022/01/12 09:41:06;;;;;;;24.38;11.32;;;-9.00;1.00;;;-8.67;80.48;100814.44;4981532;28;120484;-71
2022/01/12 09:43:36;;;;;;;26.42;11.82;;;-8.90;1.00;;;-8.01;79.38;100809.53;4981674;28;119692;-70
2022/01/12 09:46:05;;;;;;;22.98;11.27;;;-8.70;1.00;;;-8.22;79.47;100802.00;4979500;28;130240;-70
2022/01/12 09:48:36;;;;;;;25.20;11.13;;;-8.70;1.00;;;-7.93;78.34;100800.00;4980906;28;130552;-71
2022/01/12 09:51:08;;;;;;;16.95;8.30;;;-8.60;1.00;;;-7.49;77.61;100802.47;4985228;28;120098;-70
2022/01/12 09:53:40;;;;;;;21.77;10.32;;;-8.40;1.00;;;-8.04;75.82;100809.84;4985368;28;118401;-71
2022/01/12 09:56:18;;;;;;;17.30;7.97;;;-8.50;1.00;;;-8.16;76.71;100795.31;4984151;28;104379;-70
2022/01/12 09:58:53;;;;;;;23.48;11.02;;;-8.50;1.00;;;-8.01;78.41;100801.63;4984373;28;128960;-70
2022/01/12 10:01:29;;;;;;;16.60;8.18;;;-8.50;1.00;;;-7.55;77.76;100803.09;4982723;28;119794;-69
2022/01/12 10:04:09;;;;;;;23.35;11.23;;;-8.30;1.00;;;-7.26;77.16;100798.22;4983849;28;119367;-71
2022/01/12 10:06:39;;;;;;;18.42;10.10;;;-8.20;1.00;;;-7.15;76.10;100801.50;4985174;28;129915;-69
2022/01/12 10:09:12;;;;;;;17.42;8.70;;;-8.10;1.00;;;-7.14;75.67;100800.53;4982700;28;129666;-69
2022/01/12 10:11:51;;;;;;;19.27;8.52;;;-8.10;1.00;;;-7.29;75.97;100793.28;4983003;28;119495;-69
2022/01/12 10:14:21;;;;;;;16.77;8.88;;;-8.00;1.00;;;-7.43;75.99;100799.19;4983771;28;119295;-70
2022/01/12 10:16:55;;;;;;;21.27;10.73;;;-8.10;1.00;;;-7.79;77.76;100780.94;4984365;28;129225;-70
2022/01/12 10:19:30;;;;;;;31.42;14.30;;;-8.20;1.00;;;-7.95;78.43;100787.81;4965887;28;129932;-69
2022/01/12 10:22:01;;;;;;;31.40;14.57;;;-8.10;1.00;;;-7.15;77.83;100777.75;4962052;28;122133;-70
2022/01/12 10:24:31;;;;;;;32.55;14.63;;;-7.80;1.00;;;-6.95;75.96;100778.28;4963364;28;122134;-69
2022/01/12 10:27:01;;;;;;;25.88;13.27;;;-7.70;1.00;;;-6.70;74.99;100776.44;4962615;28;130735;-70
2022/01/12 10:29:31;;;;;;;28.05;12.50;;;-7.60;1.00;;;-6.46;74.50;100777.41;4964592;28;129482;-70
2022/01/12 10:32:02;;;;;;;23.35;10.82;;;-7.40;1.00;;;-6.64;74.26;100778.41;4961864;28;119481;-70
2022/01/12 10:34:37;;;;;;;22.25;9.05;;;-7.40;1.00;;;-6.17;73.23;100769.72;4962535;28;120872;-70
2022/01/12 10:37:09;;;;;;;27.42;12.02;;;-7.30;1.00;;;-6.21;73.37;100776.34;4962499;28;130698;-70
2022/01/12 10:39:44;;;;;;;17.27;7.78;;;-7.20;1.00;;;-6.10;72.71;100783.06;4964525;28;129619;-69
2022/01/12 10:42:15;;;;;;;14.95;7.65;;;-7.10;1.00;;;-6.20;72.63;100779.78;4962483;28;119775;-70
2022/01/12 10:44:46;;;;;;;17.48;9.00;;;-7.10;1.00;;;-6.17;72.07;100775.00;4963476;28;119680;-70
2022/01/12 10:47:18;;;;;;;20.40;11.20;;;-7.10;1.00;;;-6.76;74.37;100774.47;4961334;28;129944;-70
2022/01/12 10:50:00;;;;;;;24.40;11.75;;;-7.30;1.00;;;-6.59;75.21;100777.91;4964492;28;131216;-70
2022/01/12 10:52:32;;;;;;;23.50;8.90;;;-7.30;1.00;;;-7.00;75.44;100784.03;4976636;28;119396;-71
2022/01/12 10:55:06;;;;;;;18.20;9.80;;;-7.40;1.00;;;-7.28;77.04;100781.72;4962764;28;119599;-70
2022/01/12 10:57:37;;;;;;;13.85;6.88;;;-7.40;1.00;;;-7.31;77.80;100784.66;4962343;28;130374;-70
2022/01/12 11:00:18;;;;;;;13.23;6.13;;;-7.40;1.00;;;-7.55;78.98;100782.00;4962212;28;131038;-71
2022/01/12 11:02:51;;;;;;;14.88;6.75;;;-7.40;1.00;;;-7.63;79.43;100781.00;4962457;28;120214;-69
2022/01/12 11:05:23;;;;;;;17.02;7.75;;;-7.50;1.00;;;-6.88;77.61;100785.38;5009900;28;119001;-70